Aérodrome :
LOGIN :

S'inscrire | Disclaimer

   EN    FR    IT 

 










Légende :    VFR   VFR Marginal   IFR   IFR Intensif   IFR Très Intensif
Visi : 
Plafond : 
>= 8 km
>= 3000ft
5 à 8 km
1000 à 3000 ft
1500m à 5 km
500 à 1000 ft
800 à 1500m
200 à 500 ft
< 800m
< 200 ft
Symboles :   Orages  Brouillard  Fortes neiges  Fortes précipitations  Vent > 20 kt
SIGMETs :   Divers  Orages  Givrage  Turbulence  Onde Orograph.  Cendres Volcan.







- Altitude de l'aérodrome : 122 ft
- Code IATA : TXL


EDDT - Berlin Tegel Int.

DERNIER METAR :
  • 211720Z 12006KT CAVOK 12/09 Q1014 NOSIG

METARs EXPIRÉS :
  • 211650Z 14005KT CAVOK 12/09 Q1014 NOSIG
  • 211620Z 14005KT CAVOK 12/09 Q1014 NOSIG
  • 211550Z 14004KT 100V170 9999 -RA NSC 12/09 Q1014 NOSIG
  • 211520Z 18005KT 150V210 CAVOK 13/09 Q1014 NOSIG
  • 211450Z 13003KT 110V170 CAVOK 13/09 Q1014 NOSIG

TAF TAF EDDT
Valide du 21 à 12h jusqu'au 22 à 12h UTC


211100Z 2112/2212 21006KT 9999 FEW030
BECMG 2114/2116 15006KT
TEMPO 2120/2202 4000 RA BKN012
BECMG 2201/2204 22007KT
PROB30
TEMPO 2202/2206 BKN008
Pas de NOTAMs connus pour ce terrain.



MET'MAP, la Météo Aéronautique d'un coup d'oeil ! - Copyright ORBIFLY Décembre 2007 - Disclaimer

ORBIFLY MET'MAP TEAM :

Programmation & Développement : Alexandra Zaïnal
Conception & Développement : Baudouin d'Aumeries
Co-Programmation & Développement : Marc-Olivier Méhu
Soutien technique & logistique : Manuel Goepfert

Contact : metmap@orbifly.com




SOURCES & CREDITS :

   NOAA